createdAt,value
2023-02-11T00:01:33.027Z,-1.75
2023-02-11T00:04:02.464Z,-1.76
2023-02-11T00:06:32.836Z,-1.75
2023-02-11T00:09:01.314Z,-1.76
2023-02-11T00:11:30.798Z,-1.76
2023-02-11T00:14:08.099Z,-1.76
2023-02-11T00:16:36.536Z,-1.77
2023-02-11T00:19:06.616Z,-1.78
2023-02-11T00:21:35.103Z,-1.79
2023-02-11T00:24:03.682Z,-1.80
2023-02-11T00:26:34.490Z,-1.82
2023-02-11T00:29:03.022Z,-1.84
2023-02-11T00:31:33.318Z,-1.84
2023-02-11T00:34:02.122Z,-1.86
2023-02-11T00:36:31.106Z,-1.86
2023-02-11T00:39:00.150Z,-1.88
2023-02-11T00:41:29.830Z,-1.88
2023-02-11T00:44:01.882Z,-1.89
2023-02-11T00:46:30.528Z,-1.89
2023-02-11T00:48:58.775Z,-1.90
2023-02-11T00:51:28.502Z,-1.90
2023-02-11T00:53:57.952Z,-1.93
2023-02-11T00:56:26.102Z,-1.94
2023-02-11T00:58:54.359Z,-1.95
2023-02-11T01:01:22.579Z,-1.96
2023-02-11T01:03:51.423Z,-1.97
2023-02-11T01:06:19.996Z,-1.98
2023-02-11T01:08:48.086Z,-1.99
2023-02-11T01:11:20.058Z,-1.99
2023-02-11T01:13:49.647Z,-2.00
2023-02-11T01:16:19.463Z,-2.01
2023-02-11T01:18:48.124Z,-2.02
2023-02-11T01:21:19.310Z,-2.02
2023-02-11T01:23:47.697Z,-2.03
2023-02-11T01:26:16.109Z,-2.04
2023-02-11T01:28:44.503Z,-2.04
2023-02-11T01:31:12.823Z,-2.05
2023-02-11T01:33:41.235Z,-2.05
2023-02-11T01:36:11.027Z,-2.06
2023-02-11T01:38:41.228Z,-2.07
2023-02-11T01:41:12.314Z,-2.09
2023-02-11T01:43:46.318Z,-2.13
2023-02-11T01:46:36.898Z,-2.17
2023-02-11T01:49:10.180Z,-2.21
2023-02-11T01:51:52.105Z,-2.26
2023-02-11T01:54:43.313Z,-2.31
2023-02-11T01:57:27.745Z,-2.35
2023-02-11T02:00:08.110Z,-2.39
2023-02-11T02:02:47.767Z,-2.41
2023-02-11T02:05:26.360Z,-2.41
2023-02-11T02:08:02.828Z,-2.43
2023-02-11T02:10:31.923Z,-2.45
2023-02-11T02:12:59.906Z,-2.46
2023-02-11T02:15:32.366Z,-2.47
2023-02-11T02:18:41.784Z,-2.46
2023-02-11T02:21:41.697Z,-2.48
2023-02-11T02:24:15.816Z,-2.47
2023-02-11T02:27:02.778Z,-2.46
2023-02-11T02:30:03.440Z,-2.47
2023-02-11T02:33:21.623Z,-2.52
2023-02-11T02:36:19.692Z,-2.50
2023-02-11T02:38:57.333Z,-2.50
2023-02-11T02:41:30.704Z,-2.52
2023-02-11T02:43:59.195Z,-2.52
2023-02-11T02:46:34.656Z,-2.54
2023-02-11T02:49:03.945Z,-2.54
2023-02-11T02:52:09.299Z,-2.55
2023-02-11T02:55:01.594Z,-2.57
2023-02-11T02:57:35.908Z,-2.59
2023-02-11T03:00:09.920Z,-2.59
2023-02-11T03:03:05.844Z,-2.59
2023-02-11T03:05:55.399Z,-2.59
2023-02-11T03:08:47.363Z,-2.59
2023-02-11T03:11:19.011Z,-2.60
2023-02-11T03:13:49.718Z,-2.61
2023-02-11T03:16:23.413Z,-2.62
2023-02-11T03:19:08.810Z,-2.63
2023-02-11T03:21:40.245Z,-2.64
2023-02-11T03:24:14.674Z,-2.64
2023-02-11T03:26:52.981Z,-2.64
2023-02-11T03:29:40.804Z,-2.65
2023-02-11T03:32:44.186Z,-2.65
2023-02-11T03:35:12.372Z,-2.65
2023-02-11T03:37:52.114Z,-2.64
2023-02-11T03:40:26.943Z,-2.63
2023-02-11T03:43:01.136Z,-2.64
2023-02-11T03:45:30.644Z,-2.64
2023-02-11T03:48:16.336Z,-2.64
2023-02-11T03:50:47.491Z,-2.65
2023-02-11T03:53:16.482Z,-2.65
2023-02-11T03:55:48.300Z,-2.65
2023-02-11T03:58:17.033Z,-2.64
2023-02-11T04:00:45.633Z,-2.65
2023-02-11T04:03:14.290Z,-2.65
2023-02-11T04:05:42.695Z,-2.66
2023-02-11T04:08:11.075Z,-2.68
2023-02-11T04:10:39.261Z,-2.68
2023-02-11T04:13:07.349Z,-2.68
2023-02-11T04:15:35.523Z,-2.70
2023-02-11T04:18:05.131Z,-2.72
2023-02-11T04:20:33.221Z,-2.73
2023-02-11T04:23:01.151Z,-2.73
2023-02-11T04:25:29.356Z,-2.74
2023-02-11T04:27:57.681Z,-2.74
2023-02-11T04:30:25.914Z,-2.74
2023-02-11T04:32:54.706Z,-2.75
2023-02-11T04:35:23.101Z,-2.75
2023-02-11T04:37:51.264Z,-2.74
2023-02-11T04:40:19.342Z,-2.74
2023-02-11T04:42:47.520Z,-2.74
2023-02-11T04:45:15.593Z,-2.73
2023-02-11T04:47:43.682Z,-2.73
2023-02-11T04:50:11.909Z,-2.75
2023-02-11T04:52:40.136Z,-2.76
2023-02-11T04:55:08.524Z,-2.78
2023-02-11T04:57:36.735Z,-2.79
2023-02-11T05:00:07.057Z,-2.80
2023-02-11T05:02:34.996Z,-2.81
2023-02-11T05:05:03.789Z,-2.82
2023-02-11T05:07:32.126Z,-2.85
2023-02-11T05:10:00.184Z,-2.86
2023-02-11T05:12:28.429Z,-2.89
2023-02-11T05:14:56.605Z,-2.90
2023-02-11T05:17:24.580Z,-2.90
2023-02-11T05:19:52.543Z,-2.91
2023-02-11T05:22:22.180Z,-2.93
2023-02-11T05:24:50.296Z,-2.94
2023-02-11T05:27:18.297Z,-2.95
2023-02-11T05:29:46.468Z,-2.95
2023-02-11T05:32:14.537Z,-2.96
2023-02-11T05:34:42.746Z,-2.97
2023-02-11T05:37:10.846Z,-2.97
2023-02-11T05:39:39.103Z,-2.99
2023-02-11T05:42:07.293Z,-3.01
2023-02-11T05:44:35.559Z,-3.01
2023-02-11T05:47:03.835Z,-3.02
2023-02-11T05:49:32.227Z,-3.02
2023-02-11T05:52:00.287Z,-3.04
2023-02-11T05:54:28.371Z,-3.06
2023-02-11T05:56:56.659Z,-3.07
2023-02-11T05:59:24.837Z,-3.08
2023-02-11T06:01:52.845Z,-3.10
2023-02-11T06:04:20.989Z,-3.11
2023-02-11T06:06:49.056Z,-3.11
2023-02-11T06:09:17.048Z,-3.10
2023-02-11T06:11:45.345Z,-3.12
2023-02-11T06:14:14.414Z,-3.13
2023-02-11T06:16:42.692Z,-3.13
2023-02-11T06:19:11.691Z,-3.14
2023-02-11T06:21:44.102Z,-3.14
2023-02-11T06:24:13.272Z,-3.15
2023-02-11T06:26:41.352Z,-3.15
2023-02-11T06:29:09.525Z,-3.15
2023-02-11T06:31:39.399Z,-3.16
2023-02-11T06:34:10.486Z,-3.15
2023-02-11T06:36:41.187Z,-3.15
2023-02-11T06:39:13.604Z,-3.16
2023-02-11T06:41:41.699Z,-3.19
2023-02-11T06:44:10.062Z,-3.20
2023-02-11T06:46:38.157Z,-3.20
2023-02-11T06:49:06.513Z,-3.20
2023-02-11T06:51:34.705Z,-3.21
2023-02-11T06:54:04.922Z,-3.21
2023-02-11T06:56:33.716Z,-3.20
2023-02-11T06:59:02.093Z,-3.18
2023-02-11T07:01:30.083Z,-3.16
2023-02-11T07:03:58.550Z,-3.15
2023-02-11T07:06:28.224Z,-3.14
2023-02-11T07:08:56.955Z,-3.13
2023-02-11T07:11:28.346Z,-3.11
2023-02-11T07:14:01.913Z,-3.10
2023-02-11T07:16:30.479Z,-3.09
2023-02-11T07:18:58.887Z,-3.07
2023-02-11T07:21:27.482Z,-3.06
2023-02-11T07:23:55.655Z,-3.04
2023-02-11T07:26:25.880Z,-3.02
2023-02-11T07:28:55.593Z,-3.00
2023-02-11T07:31:28.068Z,-2.98
2023-02-11T07:34:00.026Z,-2.96
2023-02-11T07:36:32.112Z,-2.94
2023-02-11T07:39:00.472Z,-2.92
2023-02-11T07:41:28.862Z,-2.91
2023-02-11T07:43:57.041Z,-2.88
2023-02-11T07:46:28.018Z,-2.87
2023-02-11T07:48:56.590Z,-2.85
2023-02-11T07:51:30.439Z,-2.83
2023-02-11T07:54:00.156Z,-2.81
2023-02-11T07:56:29.070Z,-2.80
2023-02-11T07:59:00.996Z,-2.78
2023-02-11T08:01:30.358Z,-2.74
2023-02-11T08:04:00.212Z,-2.72
2023-02-11T08:06:31.881Z,-2.70
2023-02-11T08:09:05.680Z,-2.67
2023-02-11T08:11:33.917Z,-2.64
2023-02-11T08:14:02.193Z,-2.62
2023-02-11T08:16:33.386Z,-2.59
2023-02-11T08:19:04.699Z,-2.56
2023-02-11T08:21:32.833Z,-2.52
2023-02-11T08:24:03.498Z,-2.50
2023-02-11T08:26:34.754Z,-2.47
2023-02-11T08:29:10.405Z,-2.43
2023-02-11T08:31:41.358Z,-2.40
2023-02-11T08:34:11.621Z,-2.36
2023-02-11T08:36:42.035Z,-2.33
2023-02-11T08:39:20.043Z,-2.29
2023-02-11T08:41:51.686Z,-2.26
2023-02-11T08:44:21.172Z,-2.23
2023-02-11T08:46:50.678Z,-2.19
2023-02-11T08:49:19.254Z,-2.15
2023-02-11T08:51:47.720Z,-2.11
2023-02-11T08:54:16.564Z,-2.05
2023-02-11T08:56:44.724Z,-2.01
2023-02-11T08:59:15.134Z,-1.98
2023-02-11T09:01:44.654Z,-1.94
2023-02-11T09:04:13.612Z,-1.89
2023-02-11T09:06:42.056Z,-1.86
2023-02-11T09:09:13.764Z,-1.83
2023-02-11T09:11:44.144Z,-1.79
2023-02-11T09:14:21.982Z,-1.74
2023-02-11T09:16:51.650Z,-1.69
2023-02-11T09:19:21.035Z,-1.64
2023-02-11T09:21:49.215Z,-1.60
2023-02-11T09:24:17.396Z,-1.55
2023-02-11T09:26:45.494Z,-1.51
2023-02-11T09:29:13.757Z,-1.48
2023-02-11T09:31:41.968Z,-1.46
2023-02-11T09:34:12.062Z,-1.43
2023-02-11T09:36:41.621Z,-1.40
2023-02-11T09:39:14.646Z,-1.36
2023-02-11T09:42:08.928Z,-1.32
2023-02-11T09:44:38.105Z,-1.26
2023-02-11T09:47:18.069Z,-1.22
2023-02-11T09:49:50.348Z,-1.18
2023-02-11T09:52:45.246Z,-1.13
2023-02-11T09:55:45.543Z,-1.08
2023-02-11T09:58:22.966Z,-1.03
2023-02-11T10:01:22.471Z,-0.99
2023-02-11T10:04:19.355Z,-0.95
2023-02-11T10:06:54.927Z,-0.91
2023-02-11T10:09:42.637Z,-0.87
2023-02-11T10:12:32.620Z,-0.82
2023-02-11T10:15:17.983Z,-0.78
2023-02-11T10:17:48.808Z,-0.74
2023-02-11T10:20:35.633Z,-0.71
2023-02-11T10:23:15.892Z,-0.68
2023-02-11T10:25:47.133Z,-0.64
2023-02-11T10:28:21.754Z,-0.60
2023-02-11T10:31:10.256Z,-0.56
2023-02-11T10:33:50.955Z,-0.51
2023-02-11T10:36:21.224Z,-0.47
2023-02-11T10:38:49.562Z,-0.42
2023-02-11T10:41:22.980Z,-0.39
2023-02-11T10:43:52.064Z,-0.35
2023-02-11T10:46:27.028Z,-0.32
2023-02-11T10:48:55.177Z,-0.27
2023-02-11T10:51:28.587Z,-0.24
2023-02-11T10:54:06.369Z,-0.21
2023-02-11T10:56:37.622Z,-0.17
2023-02-11T10:59:15.517Z,-0.13
2023-02-11T11:01:54.393Z,-0.09
2023-02-11T11:04:33.847Z,-0.05
2023-02-11T11:07:23.958Z,-0.00
2023-02-11T11:10:27.459Z,0.06
2023-02-11T11:12:55.634Z,0.12
2023-02-11T11:15:27.470Z,0.16
2023-02-11T11:18:21.393Z,0.20
2023-02-11T11:21:24.622Z,0.24
2023-02-11T11:23:54.950Z,0.29
2023-02-11T11:26:26.033Z,0.32
2023-02-11T11:29:08.189Z,0.35
2023-02-11T11:32:04.742Z,0.40
2023-02-11T11:34:37.283Z,0.44
2023-02-11T11:37:19.514Z,0.47
2023-02-11T11:39:58.516Z,0.51
2023-02-11T11:42:26.906Z,0.54
2023-02-11T11:45:20.148Z,0.56
2023-02-11T11:47:56.195Z,0.59
2023-02-11T11:50:45.156Z,0.61
2023-02-11T11:53:37.483Z,0.64
2023-02-11T11:56:09.983Z,0.67
2023-02-11T11:58:38.418Z,0.69
2023-02-11T12:01:21.254Z,0.71
2023-02-11T12:04:26.893Z,0.73
2023-02-11T12:07:25.950Z,0.75
2023-02-11T12:09:54.455Z,0.78
2023-02-11T12:12:34.504Z,0.80
2023-02-11T12:15:05.549Z,0.82
2023-02-11T12:18:11.081Z,0.84
2023-02-11T12:20:50.610Z,0.88
2023-02-11T12:23:38.764Z,0.90
2023-02-11T12:26:18.530Z,0.92
2023-02-11T12:29:24.901Z,0.94
2023-02-11T12:32:04.658Z,0.97
2023-02-11T12:35:07.152Z,0.99
2023-02-11T12:37:49.146Z,1.02
2023-02-11T12:40:22.036Z,1.04
2023-02-11T12:43:22.000Z,1.07
2023-02-11T12:46:28.701Z,1.10
2023-02-11T12:49:12.126Z,1.13
2023-02-11T12:52:03.737Z,1.16
2023-02-11T12:54:58.726Z,1.18
2023-02-11T12:57:31.196Z,1.22
2023-02-11T13:00:40.722Z,1.23
2023-02-11T13:03:19.835Z,1.27
2023-02-11T13:05:58.795Z,1.30
2023-02-11T13:08:42.613Z,1.32
2023-02-11T13:11:16.372Z,1.35
2023-02-11T13:13:50.216Z,1.38
2023-02-11T13:16:35.853Z,1.40
2023-02-11T13:19:14.061Z,1.42
2023-02-11T13:22:01.120Z,1.45
2023-02-11T13:24:51.399Z,1.48
2023-02-11T13:27:41.062Z,1.50
2023-02-11T13:30:29.573Z,1.52
2023-02-11T13:32:57.688Z,1.55
2023-02-11T13:35:40.362Z,1.58
2023-02-11T13:38:18.905Z,1.64
2023-02-11T13:41:04.691Z,1.72
2023-02-11T13:43:35.734Z,1.82
2023-02-11T13:46:06.802Z,1.91
2023-02-11T13:48:50.126Z,2.00
2023-02-11T13:51:34.645Z,2.10
2023-02-11T13:54:04.494Z,2.21
2023-02-11T13:56:37.042Z,2.30
2023-02-11T13:59:27.548Z,2.38
2023-02-11T14:02:36.283Z,2.47
2023-02-11T14:05:22.877Z,2.53
2023-02-11T14:08:42.077Z,2.57
2023-02-11T14:11:29.999Z,2.58
2023-02-11T14:14:25.618Z,2.59
2023-02-11T14:17:00.349Z,2.61
2023-02-11T14:19:34.821Z,2.61
2023-02-11T14:22:04.679Z,2.60
2023-02-11T14:24:32.752Z,2.60
2023-02-11T14:27:56.916Z,2.59
2023-02-11T14:30:46.690Z,2.58
2023-02-11T14:33:21.102Z,2.57
2023-02-11T14:36:05.963Z,2.55
2023-02-11T14:38:49.455Z,2.53
2023-02-11T14:41:26.877Z,2.52
2023-02-11T14:43:59.831Z,2.51
2023-02-11T14:46:30.444Z,2.50
2023-02-11T14:49:01.846Z,2.50
2023-02-11T14:51:40.350Z,2.48
2023-02-11T14:54:24.080Z,2.46
2023-02-11T14:57:17.425Z,2.45
2023-02-11T15:00:04.434Z,2.42
2023-02-11T15:02:35.835Z,2.40
2023-02-11T15:05:23.839Z,2.39
2023-02-11T15:07:55.088Z,2.37
2023-02-11T15:10:31.863Z,2.36
2023-02-11T15:13:01.492Z,2.35
2023-02-11T15:15:31.009Z,2.34
2023-02-11T15:18:02.771Z,2.32
2023-02-11T15:20:33.780Z,2.31
2023-02-11T15:23:05.056Z,2.29
2023-02-11T15:25:34.347Z,2.27
2023-02-11T15:28:21.235Z,2.27
2023-02-11T15:31:01.046Z,2.27
2023-02-11T15:33:32.958Z,2.26
2023-02-11T15:36:02.747Z,2.25
2023-02-11T15:38:31.362Z,2.23
2023-02-11T15:41:02.474Z,2.22
2023-02-11T15:43:54.210Z,2.21
2023-02-11T15:46:23.672Z,2.19
2023-02-11T15:48:55.686Z,2.17
2023-02-11T15:51:36.550Z,2.15
2023-02-11T15:54:24.091Z,2.13
2023-02-11T15:56:55.458Z,2.12
2023-02-11T15:59:32.302Z,2.11
2023-02-11T16:02:29.241Z,2.09
2023-02-11T16:05:00.181Z,2.07
2023-02-11T16:07:50.054Z,2.05
2023-02-11T16:10:23.155Z,2.03
2023-02-11T16:13:06.304Z,2.02
2023-02-11T16:15:34.458Z,1.99
2023-02-11T16:18:12.709Z,1.97
2023-02-11T16:20:41.342Z,1.95
2023-02-11T16:23:23.535Z,1.93
2023-02-11T16:26:00.004Z,1.91
2023-02-11T16:28:29.427Z,1.90
2023-02-11T16:30:59.784Z,1.89
2023-02-11T16:33:29.965Z,1.86
2023-02-11T16:36:02.135Z,1.84
2023-02-11T16:38:32.279Z,1.83
2023-02-11T16:41:00.335Z,1.82
2023-02-11T16:43:28.339Z,1.81
2023-02-11T16:45:58.744Z,1.80
2023-02-11T16:48:26.855Z,1.78
2023-02-11T16:50:55.451Z,1.77
2023-02-11T16:53:25.436Z,1.77
2023-02-11T16:55:54.237Z,1.76
2023-02-11T16:58:22.398Z,1.74
2023-02-11T17:00:51.517Z,1.73
2023-02-11T17:03:23.038Z,1.70
2023-02-11T17:05:55.686Z,1.69
2023-02-11T17:08:24.212Z,1.67
2023-02-11T17:10:52.893Z,1.65
2023-02-11T17:13:21.289Z,1.65
2023-02-11T17:15:49.713Z,1.64
2023-02-11T17:18:18.058Z,1.61
2023-02-11T17:20:46.130Z,1.60
2023-02-11T17:23:14.413Z,1.59
2023-02-11T17:25:42.691Z,1.58
2023-02-11T17:28:12.279Z,1.56
2023-02-11T17:30:43.542Z,1.54
2023-02-11T17:33:11.620Z,1.53
2023-02-11T17:35:41.067Z,1.52
2023-02-11T17:38:09.210Z,1.51
2023-02-11T17:40:37.388Z,1.50
2023-02-11T17:43:05.356Z,1.48
2023-02-11T17:45:33.558Z,1.46
2023-02-11T17:48:02.336Z,1.45
2023-02-11T17:50:30.304Z,1.43
2023-02-11T17:52:58.489Z,1.42
2023-02-11T17:55:26.572Z,1.40
2023-02-11T17:57:55.670Z,1.39
2023-02-11T18:00:24.145Z,1.38
2023-02-11T18:02:52.083Z,1.36
2023-02-11T18:05:20.845Z,1.36
2023-02-11T18:07:49.098Z,1.36
2023-02-11T18:10:17.535Z,1.36
2023-02-11T18:12:45.749Z,1.36
2023-02-11T18:15:16.891Z,1.36
2023-02-11T18:17:45.090Z,1.35
2023-02-11T18:20:13.360Z,1.35
2023-02-11T18:22:42.174Z,1.33
2023-02-11T18:25:14.724Z,1.33
2023-02-11T18:27:43.389Z,1.32
2023-02-11T18:30:16.549Z,1.31
2023-02-11T18:32:44.708Z,1.30
2023-02-11T18:35:15.121Z,1.28
2023-02-11T18:37:43.301Z,1.27
2023-02-11T18:40:13.852Z,1.25
2023-02-11T18:42:42.942Z,1.24
2023-02-11T18:45:15.056Z,1.24
2023-02-11T18:47:43.181Z,1.24
2023-02-11T18:50:13.823Z,1.23
2023-02-11T18:52:42.398Z,1.23
2023-02-11T18:55:10.908Z,1.22
2023-02-11T18:57:38.926Z,1.23
2023-02-11T19:00:10.119Z,1.22
2023-02-11T19:02:38.411Z,1.21
2023-02-11T19:05:07.152Z,1.21
2023-02-11T19:07:35.351Z,1.22
2023-02-11T19:10:05.097Z,1.22
2023-02-11T19:12:33.357Z,1.22
2023-02-11T19:15:01.336Z,1.20
2023-02-11T19:17:29.312Z,1.19
2023-02-11T19:19:57.388Z,1.18
2023-02-11T19:22:25.444Z,1.16
2023-02-11T19:24:53.429Z,1.16
2023-02-11T19:27:21.524Z,1.15
2023-02-11T19:29:49.475Z,1.15
2023-02-11T19:32:17.778Z,1.14
2023-02-11T19:34:45.712Z,1.15
2023-02-11T19:37:13.916Z,1.15
2023-02-11T19:39:43.020Z,1.16
2023-02-11T19:42:12.317Z,1.16
2023-02-11T19:44:40.603Z,1.16
2023-02-11T19:47:10.450Z,1.16
2023-02-11T19:49:38.498Z,1.17
2023-02-11T19:52:06.571Z,1.16
2023-02-11T19:54:34.711Z,1.18
2023-02-11T19:57:03.040Z,1.19
2023-02-11T19:59:31.102Z,1.19
2023-02-11T20:02:01.866Z,1.19
2023-02-11T20:04:32.286Z,1.20
2023-02-11T20:07:00.456Z,1.20
2023-02-11T20:09:29.141Z,1.21
2023-02-11T20:11:57.521Z,1.20
2023-02-11T20:14:27.903Z,1.21
2023-02-11T20:16:56.340Z,1.22
2023-02-11T20:19:24.509Z,1.21
2023-02-11T20:21:56.083Z,1.21
2023-02-11T20:24:25.626Z,1.21
2023-02-11T20:26:56.733Z,1.22
2023-02-11T20:29:25.894Z,1.21
2023-02-11T20:31:54.514Z,1.21
2023-02-11T20:34:25.158Z,1.21
2023-02-11T20:36:54.290Z,1.20
2023-02-11T20:39:24.409Z,1.21
2023-02-11T20:41:53.931Z,1.21
2023-02-11T20:44:23.199Z,1.23
2023-02-11T20:46:54.491Z,1.23
2023-02-11T20:49:24.655Z,1.24
2023-02-11T20:51:53.944Z,1.23
2023-02-11T20:54:24.393Z,1.20
2023-02-11T20:56:54.033Z,1.19
2023-02-11T20:59:24.736Z,1.18
2023-02-11T21:01:55.687Z,1.17
2023-02-11T21:04:27.784Z,1.17
2023-02-11T21:06:59.254Z,1.17
2023-02-11T21:09:30.963Z,1.17
2023-02-11T21:11:59.540Z,1.16
2023-02-11T21:14:28.648Z,1.16
2023-02-11T21:16:57.850Z,1.17
2023-02-11T21:19:25.938Z,1.18
2023-02-11T21:21:55.263Z,1.19
2023-02-11T21:24:23.926Z,1.19
2023-02-11T21:26:51.946Z,1.20
2023-02-11T21:29:20.293Z,1.20
2023-02-11T21:31:48.989Z,1.21
2023-02-11T21:34:17.363Z,1.22
2023-02-11T21:36:45.541Z,1.23
2023-02-11T21:39:13.943Z,1.24
2023-02-11T21:41:42.212Z,1.24
2023-02-11T21:44:10.398Z,1.25
2023-02-11T21:46:38.505Z,1.25
2023-02-11T21:49:06.559Z,1.25
2023-02-11T21:51:34.654Z,1.27
2023-02-11T21:54:04.015Z,1.28
2023-02-11T21:56:34.324Z,1.29
2023-02-11T21:59:02.782Z,1.30
2023-02-11T22:01:35.435Z,1.31
2023-02-11T22:04:03.808Z,1.32
2023-02-11T22:06:34.219Z,1.32
2023-02-11T22:09:06.707Z,1.32
2023-02-11T22:11:35.811Z,1.33
2023-02-11T22:14:04.116Z,1.34
2023-02-11T22:16:32.505Z,1.34
2023-02-11T22:19:02.623Z,1.34
2023-02-11T22:21:30.781Z,1.34
2023-02-11T22:23:59.048Z,1.33
2023-02-11T22:26:28.153Z,1.33
2023-02-11T22:28:56.947Z,1.34
2023-02-11T22:31:28.926Z,1.35
2023-02-11T22:33:57.958Z,1.35
2023-02-11T22:36:29.389Z,1.37
2023-02-11T22:39:01.832Z,1.37
2023-02-11T22:41:30.019Z,1.37
2023-02-11T22:43:58.388Z,1.37
2023-02-11T22:46:26.596Z,1.37
2023-02-11T22:48:55.159Z,1.37
2023-02-11T22:51:26.298Z,1.37
2023-02-11T22:53:59.507Z,1.37
2023-02-11T22:56:28.699Z,1.37
2023-02-11T22:58:59.119Z,1.37
2023-02-11T23:01:28.365Z,1.37
2023-02-11T23:03:58.645Z,1.37
2023-02-11T23:06:26.827Z,1.38
2023-02-11T23:08:55.720Z,1.38
2023-02-11T23:11:27.431Z,1.39
2023-02-11T23:13:56.280Z,1.39
2023-02-11T23:16:28.033Z,1.39
2023-02-11T23:18:58.601Z,1.40
2023-02-11T23:21:29.871Z,1.40
2023-02-11T23:24:00.516Z,1.41
2023-02-11T23:26:29.651Z,1.41
2023-02-11T23:28:59.371Z,1.41
2023-02-11T23:31:31.014Z,1.43
2023-02-11T23:33:59.301Z,1.44
2023-02-11T23:36:27.851Z,1.44
2023-02-11T23:38:55.970Z,1.45
2023-02-11T23:41:24.979Z,1.45
2023-02-11T23:43:55.162Z,1.45
2023-02-11T23:46:24.859Z,1.45
2023-02-11T23:48:53.400Z,1.45
2023-02-11T23:51:22.748Z,1.45
2023-02-11T23:53:52.735Z,1.45
2023-02-11T23:56:24.000Z,1.45
2023-02-11T23:58:54.379Z,1.45
